createdAt,value
2023-05-06T00:00:07.459Z,13.60
2023-05-06T00:03:13.676Z,11.60
2023-05-06T00:06:16.200Z,12.93
2023-05-06T00:09:18.398Z,13.93
2023-05-06T00:12:20.923Z,12.35
2023-05-06T00:15:23.143Z,12.45
2023-05-06T00:18:25.567Z,13.35
2023-05-06T00:21:27.922Z,10.68
2023-05-06T00:24:30.743Z,13.10
2023-05-06T00:27:33.297Z,14.30
2023-05-06T00:30:35.920Z,12.55
2023-05-06T00:33:38.112Z,9.75
2023-05-06T00:36:42.731Z,13.13
2023-05-06T00:39:44.934Z,9.90
2023-05-06T00:42:47.394Z,11.60
2023-05-06T00:45:51.410Z,11.00
2023-05-06T00:48:55.056Z,9.57
2023-05-06T00:51:58.848Z,10.18
2023-05-06T00:55:01.424Z,13.35
2023-05-06T00:58:04.547Z,10.82
2023-05-06T01:01:08.319Z,8.60
2023-05-06T01:04:10.563Z,9.93
2023-05-06T01:07:36.030Z,11.25
2023-05-06T01:10:51.665Z,10.60
2023-05-06T01:14:11.674Z,9.65
2023-05-06T01:17:16.646Z,8.85
2023-05-06T01:20:21.468Z,10.68
2023-05-06T01:23:23.668Z,9.93
2023-05-06T01:26:27.131Z,10.90
2023-05-06T01:29:29.574Z,9.88
2023-05-06T01:32:56.256Z,8.80
2023-05-06T01:36:11.266Z,9.40
2023-05-06T01:39:26.524Z,10.55
2023-05-06T01:42:30.168Z,11.80
2023-05-06T01:45:35.332Z,11.40
2023-05-06T01:48:39.740Z,9.20
2023-05-06T01:51:47.884Z,11.30
2023-05-06T01:54:50.080Z,12.23
2023-05-06T01:57:54.179Z,10.57
2023-05-06T02:00:56.363Z,9.73
2023-05-06T02:03:58.865Z,8.98
2023-05-06T02:07:01.345Z,9.98
2023-05-06T02:10:04.500Z,9.32
2023-05-06T02:13:08.072Z,11.40
2023-05-06T02:16:10.920Z,9.70
2023-05-06T02:19:13.450Z,9.52
2023-05-06T02:22:15.905Z,9.90
2023-05-06T02:25:18.396Z,10.05
2023-05-06T02:28:20.873Z,9.82
2023-05-06T02:31:24.528Z,9.55
2023-05-06T02:34:26.703Z,10.23
2023-05-06T02:37:29.184Z,11.43
2023-05-06T02:40:31.379Z,9.57
2023-05-06T02:43:34.024Z,11.07
2023-05-06T02:46:36.218Z,11.43
2023-05-06T02:49:38.808Z,11.05
2023-05-06T02:52:40.981Z,11.82
2023-05-06T02:55:43.391Z,12.60
2023-05-06T02:58:45.616Z,12.68
2023-05-06T03:01:48.357Z,12.82
2023-05-06T03:04:50.954Z,12.52
2023-05-06T03:07:53.750Z,11.93
2023-05-06T03:10:56.341Z,10.93
2023-05-06T03:13:58.912Z,10.63
2023-05-06T03:17:01.139Z,11.63
2023-05-06T03:20:05.893Z,12.82
2023-05-06T03:23:08.368Z,10.27
2023-05-06T03:26:11.128Z,11.27
2023-05-06T03:29:13.542Z,15.63
2023-05-06T03:32:18.012Z,10.10
2023-05-06T03:35:20.472Z,11.35
2023-05-06T03:38:23.647Z,13.65
2023-05-06T03:41:26.799Z,10.50
2023-05-06T03:44:29.912Z,12.23
2023-05-06T03:47:32.524Z,9.93
2023-05-06T03:50:36.084Z,11.85
2023-05-06T03:53:38.303Z,8.75
2023-05-06T03:56:40.857Z,14.32
2023-05-06T03:59:43.633Z,10.95
2023-05-06T04:02:46.174Z,13.20
2023-05-06T04:05:50.660Z,11.77
2023-05-06T04:08:53.851Z,11.73
2023-05-06T04:11:56.841Z,11.12
2023-05-06T04:14:59.551Z,14.18
2023-05-06T04:18:02.808Z,10.60
2023-05-06T04:21:05.627Z,12.75
2023-05-06T04:24:09.248Z,10.68
2023-05-06T04:27:12.003Z,16.98
2023-05-06T04:30:16.763Z,11.45
2023-05-06T04:33:19.166Z,14.52
2023-05-06T04:36:22.196Z,11.50
2023-05-06T04:39:25.576Z,11.25
2023-05-06T04:42:28.194Z,13.45
2023-05-06T04:45:32.520Z,11.90
2023-05-06T04:48:35.352Z,10.93
2023-05-06T04:51:37.876Z,12.60
2023-05-06T04:54:41.168Z,11.70
2023-05-06T04:57:44.686Z,10.60
2023-05-06T05:00:47.113Z,12.73
2023-05-06T05:03:49.531Z,11.20
2023-05-06T05:06:52.675Z,11.88
2023-05-06T05:09:54.830Z,15.25
2023-05-06T05:12:57.982Z,11.80
2023-05-06T05:16:00.968Z,12.00
2023-05-06T05:19:04.344Z,11.52
2023-05-06T05:22:07.110Z,12.18
2023-05-06T05:25:10.270Z,12.27
2023-05-06T05:28:12.880Z,13.05
2023-05-06T05:31:15.707Z,15.00
2023-05-06T05:34:18.382Z,11.43
2023-05-06T05:37:21.502Z,13.68
2023-05-06T05:40:23.971Z,13.60
2023-05-06T05:43:26.961Z,11.23
2023-05-06T05:46:29.736Z,12.65
2023-05-06T05:49:32.529Z,12.15
2023-05-06T05:52:34.865Z,15.82
2023-05-06T05:55:37.379Z,14.10
2023-05-06T05:58:40.314Z,15.30
2023-05-06T06:01:43.636Z,14.05
2023-05-06T06:04:46.346Z,11.25
2023-05-06T06:07:48.665Z,11.27
2023-05-06T06:10:51.496Z,13.73
2023-05-06T06:13:54.342Z,13.02
2023-05-06T06:16:57.368Z,12.10
2023-05-06T06:19:59.874Z,14.18
2023-05-06T06:23:02.889Z,10.23
2023-05-06T06:26:05.432Z,12.02
2023-05-06T06:29:08.228Z,13.40
2023-05-06T06:32:10.554Z,12.25
2023-05-06T06:35:13.089Z,10.38
2023-05-06T06:38:15.679Z,14.50
2023-05-06T06:41:18.177Z,12.75
2023-05-06T06:44:20.466Z,11.07
2023-05-06T06:47:22.997Z,12.88
2023-05-06T06:50:25.247Z,15.07
2023-05-06T06:53:28.073Z,11.60
2023-05-06T06:56:30.735Z,12.77
2023-05-06T06:59:33.216Z,11.30
2023-05-06T07:02:35.493Z,11.35
2023-05-06T07:05:38.016Z,13.57
2023-05-06T07:08:40.200Z,9.98
2023-05-06T07:11:42.872Z,10.23
2023-05-06T07:14:45.177Z,14.25
2023-05-06T07:17:47.671Z,14.40
2023-05-06T07:20:49.899Z,14.43
2023-05-06T07:23:52.488Z,13.88
2023-05-06T07:26:54.802Z,10.55
2023-05-06T07:29:57.392Z,13.93
2023-05-06T07:32:59.995Z,11.10
2023-05-06T07:36:03.013Z,12.37
2023-05-06T07:39:05.204Z,13.25
2023-05-06T07:42:08.174Z,10.43
2023-05-06T07:45:11.107Z,10.63
2023-05-06T07:48:13.764Z,10.55
2023-05-06T07:51:16.121Z,14.40
2023-05-06T07:54:18.563Z,11.77
2023-05-06T07:57:20.736Z,11.48
2023-05-06T08:00:23.335Z,10.45
2023-05-06T08:03:26.264Z,20.08
2023-05-06T08:06:28.597Z,14.25
2023-05-06T08:09:31.098Z,12.82
2023-05-06T08:12:36.371Z,15.35
2023-05-06T08:15:39.409Z,13.95
2023-05-06T08:18:41.836Z,17.25
2023-05-06T08:21:44.408Z,14.35
2023-05-06T08:24:46.633Z,14.05
2023-05-06T08:27:49.067Z,17.77
2023-05-06T08:30:52.146Z,10.65
2023-05-06T08:33:55.030Z,10.85
2023-05-06T08:36:57.259Z,12.43
2023-05-06T08:40:00.084Z,10.73
2023-05-06T08:43:03.883Z,11.95
2023-05-06T08:46:06.464Z,11.98
2023-05-06T08:49:09.943Z,12.05
2023-05-06T08:52:12.586Z,11.52
2023-05-06T08:55:15.378Z,12.43
2023-05-06T08:58:19.278Z,11.18
2023-05-06T09:01:22.169Z,11.20
2023-05-06T09:04:25.170Z,14.55
2023-05-06T09:07:27.389Z,10.63
2023-05-06T09:10:37.940Z,10.40
2023-05-06T09:16:44.918Z,11.55
2023-05-06T09:19:47.090Z,9.10
2023-05-06T09:22:49.518Z,10.32
2023-05-06T09:25:51.854Z,8.13
2023-05-06T09:28:54.928Z,8.57
2023-05-06T09:31:57.077Z,8.40
2023-05-06T09:35:00.408Z,9.77
2023-05-06T09:38:02.542Z,8.80
2023-05-06T09:41:06.521Z,8.13
2023-05-06T09:44:08.748Z,10.10
2023-05-06T09:47:11.369Z,10.73
2023-05-06T09:50:13.999Z,7.25
2023-05-06T09:53:18.134Z,7.43
2023-05-06T09:56:21.441Z,5.85
2023-05-06T09:59:27.059Z,6.10
2023-05-06T10:02:30.635Z,6.25
2023-05-06T10:05:35.381Z,7.47
2023-05-06T10:08:38.768Z,6.35
2023-05-06T10:11:41.625Z,7.15
2023-05-06T10:14:43.800Z,9.02
2023-05-06T10:17:48.949Z,5.82
2023-05-06T10:20:53.642Z,4.40
2023-05-06T10:24:07.202Z,4.70
2023-05-06T10:27:12.132Z,3.40
2023-05-06T10:30:19.081Z,3.55
2023-05-06T10:33:23.392Z,4.72
2023-05-06T10:36:28.370Z,4.68
2023-05-06T10:39:30.772Z,4.55
2023-05-06T10:42:36.377Z,6.90
2023-05-06T10:46:09.273Z,13.85
2023-05-06T10:49:11.893Z,4.85
2023-05-06T10:52:15.162Z,3.97
2023-05-06T10:55:32.457Z,4.80
2023-05-06T10:58:36.224Z,5.32
2023-05-06T11:01:40.605Z,5.97
2023-05-06T11:04:42.914Z,4.55
2023-05-06T11:07:45.419Z,4.62
2023-05-06T11:10:47.610Z,5.40
2023-05-06T11:13:53.189Z,4.10
2023-05-06T11:16:57.530Z,5.35
2023-05-06T11:20:23.490Z,7.45
2023-05-06T11:23:46.658Z,5.28
2023-05-06T11:26:49.888Z,4.45
2023-05-06T11:29:52.134Z,7.35
2023-05-06T11:32:56.989Z,4.47
2023-05-06T11:36:04.028Z,4.25
2023-05-06T11:39:09.837Z,4.15
2023-05-06T11:42:12.006Z,4.00
2023-05-06T11:45:14.492Z,4.20
2023-05-06T11:48:17.950Z,3.55
2023-05-06T11:51:24.124Z,4.37
2023-05-06T11:54:27.186Z,4.50
2023-05-06T11:57:29.808Z,3.70
2023-05-06T12:00:31.965Z,7.07
2023-05-06T12:03:34.491Z,18.75
2023-05-06T12:06:37.696Z,4.10
2023-05-06T12:09:43.555Z,4.03
2023-05-06T12:12:46.027Z,4.20
2023-05-06T12:15:50.125Z,4.00
2023-05-06T12:18:53.750Z,4.30
2023-05-06T12:21:57.206Z,4.43
2023-05-06T12:25:13.225Z,4.62
2023-05-06T12:28:19.303Z,5.30
2023-05-06T12:31:23.085Z,4.60
2023-05-06T12:34:36.132Z,4.80
2023-05-06T12:37:39.282Z,7.05
2023-05-06T12:40:43.716Z,4.87
2023-05-06T12:43:46.092Z,6.40
2023-05-06T12:46:52.670Z,4.60
2023-05-06T12:50:00.667Z,6.65
2023-05-06T12:53:04.693Z,4.37
2023-05-06T12:56:06.865Z,4.75
2023-05-06T12:59:09.297Z,4.57
2023-05-06T13:02:11.788Z,6.57
2023-05-06T13:05:14.307Z,5.35
2023-05-06T13:08:16.527Z,4.20
2023-05-06T13:11:18.990Z,3.97
2023-05-06T13:14:21.952Z,4.03
2023-05-06T13:17:25.447Z,4.82
2023-05-06T13:20:27.727Z,5.87
2023-05-06T13:23:31.379Z,4.95
2023-05-06T13:26:34.854Z,6.15
2023-05-06T13:29:37.761Z,4.45
2023-05-06T13:32:40.019Z,6.50
2023-05-06T13:35:42.442Z,4.40
2023-05-06T13:38:44.540Z,4.18
2023-05-06T13:41:48.144Z,4.28
2023-05-06T13:44:50.362Z,3.70
2023-05-06T13:47:52.963Z,4.43
2023-05-06T13:50:55.239Z,7.28
2023-05-06T13:53:57.691Z,11.70
2023-05-06T13:56:59.891Z,8.18
2023-05-06T14:00:02.370Z,9.23
2023-05-06T14:03:09.634Z,6.05
2023-05-06T14:06:12.071Z,5.12
2023-05-06T14:09:14.200Z,7.40
2023-05-06T14:12:16.658Z,5.95
2023-05-06T14:15:18.850Z,9.63
2023-05-06T14:18:21.260Z,7.45
2023-05-06T14:21:23.480Z,7.43
2023-05-06T14:24:25.904Z,6.43
2023-05-06T14:27:28.443Z,9.20
2023-05-06T14:30:31.455Z,6.65
2023-05-06T14:33:33.548Z,6.55
2023-05-06T14:36:36.005Z,8.70
2023-05-06T14:39:38.178Z,7.97
2023-05-06T14:42:40.728Z,5.45
2023-05-06T14:45:42.920Z,7.57
2023-05-06T14:48:45.725Z,6.37
2023-05-06T14:51:49.828Z,6.10
2023-05-06T14:54:52.290Z,8.85
2023-05-06T14:57:54.419Z,9.75
2023-05-06T15:00:57.038Z,6.40
2023-05-06T15:03:59.330Z,6.80
2023-05-06T15:07:02.690Z,6.85
2023-05-06T15:10:05.262Z,6.60
2023-05-06T15:13:08.174Z,7.10
2023-05-06T15:16:11.574Z,6.97
2023-05-06T15:19:14.206Z,9.18
2023-05-06T15:22:16.462Z,7.03
2023-05-06T15:25:33.389Z,8.63
2023-05-06T15:28:36.104Z,10.43
2023-05-06T15:31:40.701Z,8.77
2023-05-06T15:34:42.882Z,8.38
2023-05-06T15:37:45.294Z,8.30
2023-05-06T15:40:51.647Z,8.13
2023-05-06T15:43:56.127Z,8.90
2023-05-06T15:46:58.232Z,7.87
2023-05-06T15:50:01.575Z,8.90
2023-05-06T15:53:04.053Z,7.10
2023-05-06T15:56:13.599Z,7.00
2023-05-06T15:59:20.147Z,7.15
2023-05-06T16:02:27.258Z,8.80
2023-05-06T16:05:30.224Z,7.78
2023-05-06T16:08:32.332Z,7.68
2023-05-06T16:11:34.755Z,7.40
2023-05-06T16:14:36.964Z,9.70
2023-05-06T16:17:40.472Z,7.07
2023-05-06T16:20:42.705Z,7.60
2023-05-06T16:23:45.320Z,8.23
2023-05-06T16:26:47.449Z,10.85
2023-05-06T16:29:49.893Z,8.05
2023-05-06T16:32:52.121Z,7.53
2023-05-06T16:35:54.745Z,7.85
2023-05-06T16:38:56.862Z,7.47
2023-05-06T16:41:59.268Z,11.82
2023-05-06T16:45:01.440Z,8.30
2023-05-06T16:48:03.981Z,7.95
2023-05-06T16:51:06.446Z,7.43
2023-05-06T16:54:08.958Z,7.68
2023-05-06T16:57:11.184Z,7.75
2023-05-06T17:00:15.396Z,7.62
2023-05-06T17:03:17.651Z,7.75
2023-05-06T17:06:20.071Z,7.68
2023-05-06T17:09:22.559Z,8.50
2023-05-06T17:12:26.761Z,8.82
2023-05-06T17:15:28.961Z,8.32
2023-05-06T17:18:31.452Z,9.88
2023-05-06T17:21:33.663Z,8.52
2023-05-06T17:24:36.189Z,8.32
2023-05-06T17:27:38.330Z,9.80
2023-05-06T17:30:40.987Z,10.30
2023-05-06T17:33:44.659Z,8.27
2023-05-06T17:36:47.060Z,9.32
2023-05-06T17:39:49.307Z,10.10
2023-05-06T17:42:51.799Z,11.57
2023-05-06T17:45:53.995Z,10.20
2023-05-06T17:48:56.430Z,8.98
2023-05-06T17:51:59.547Z,8.57
2023-05-06T17:55:15.441Z,9.55
2023-05-06T17:58:19.316Z,8.77
2023-05-06T18:01:21.784Z,10.88
2023-05-06T18:04:24.335Z,8.80
2023-05-06T18:07:26.507Z,8.85
2023-05-06T18:10:29.404Z,12.75
2023-05-06T18:13:34.562Z,9.38
2023-05-06T18:16:37.565Z,10.60
2023-05-06T18:19:40.985Z,9.35
2023-05-06T18:22:43.446Z,9.90
2023-05-06T18:25:45.676Z,12.10
2023-05-06T18:28:48.816Z,9.75
2023-05-06T18:31:51.074Z,10.23
2023-05-06T18:34:53.662Z,12.10
2023-05-06T18:37:55.857Z,10.48
2023-05-06T18:40:58.540Z,9.85
2023-05-06T18:44:02.396Z,11.20
2023-05-06T18:47:05.502Z,9.15
2023-05-06T18:50:08.774Z,11.73
2023-05-06T18:53:11.219Z,9.00
2023-05-06T18:56:14.147Z,8.93
2023-05-06T18:59:16.550Z,9.48
2023-05-06T19:02:18.694Z,10.70
2023-05-06T19:05:21.252Z,10.80
2023-05-06T19:08:23.410Z,10.27
2023-05-06T19:11:25.831Z,18.02
2023-05-06T19:14:28.148Z,10.90
2023-05-06T19:17:30.713Z,13.88
2023-05-06T19:20:33.057Z,10.55
2023-05-06T19:23:35.805Z,12.18
2023-05-06T19:26:39.116Z,10.93
2023-05-06T19:29:41.822Z,11.32
2023-05-06T19:32:44.492Z,15.25
2023-05-06T19:35:46.985Z,14.50
2023-05-06T19:38:49.086Z,14.13
2023-05-06T19:41:53.697Z,15.27
2023-05-06T19:44:55.948Z,13.20
2023-05-06T19:47:59.272Z,14.38
2023-05-06T19:51:02.971Z,14.40
2023-05-06T19:54:06.230Z,13.82
2023-05-06T19:59:49.950Z,13.77
2023-05-06T20:02:52.729Z,14.05
2023-05-06T20:05:55.225Z,9.77
2023-05-06T20:08:57.380Z,11.00
2023-05-06T20:11:59.849Z,10.65
2023-05-06T20:15:03.910Z,11.57
2023-05-06T20:18:07.323Z,10.10
2023-05-06T20:21:09.547Z,10.82
2023-05-06T20:24:12.241Z,8.70
2023-05-06T20:27:14.354Z,9.07
2023-05-06T20:30:16.856Z,9.10
2023-05-06T20:33:19.073Z,8.57
2023-05-06T20:36:21.535Z,8.65
2023-05-06T20:39:23.918Z,9.27
2023-05-06T20:42:26.406Z,9.95
2023-05-06T20:45:30.014Z,6.95
2023-05-06T20:48:32.461Z,7.85
2023-05-06T20:51:34.703Z,9.23
2023-05-06T20:54:37.235Z,7.82
2023-05-06T20:57:43.530Z,8.73
2023-05-06T21:00:46.109Z,7.75
2023-05-06T21:03:49.134Z,7.25
2023-05-06T21:06:51.624Z,7.20
2023-05-06T21:09:53.743Z,7.87
2023-05-06T21:12:56.186Z,6.90
2023-05-06T21:15:58.357Z,6.60
2023-05-06T21:19:00.859Z,6.37
2023-05-06T21:22:03.149Z,7.43
2023-05-06T21:25:06.305Z,8.93
2023-05-06T21:28:08.492Z,8.23
2023-05-06T21:31:11.078Z,7.82
2023-05-06T21:34:13.499Z,8.75
2023-05-06T21:37:15.990Z,7.85
2023-05-06T21:40:18.376Z,8.68
2023-05-06T21:43:20.976Z,7.43
2023-05-06T21:46:23.245Z,7.97
2023-05-06T21:49:25.775Z,8.43
2023-05-06T21:52:27.902Z,9.05
2023-05-06T21:55:30.375Z,8.45
2023-05-06T21:58:32.565Z,8.73
2023-05-06T22:01:36.269Z,7.97
2023-05-06T22:04:38.744Z,9.85
2023-05-06T22:07:41.008Z,13.30
2023-05-06T22:10:43.432Z,9.30
2023-05-06T22:13:45.592Z,9.38
2023-05-06T22:16:48.916Z,8.98
2023-05-06T22:19:51.894Z,7.65
2023-05-06T22:22:54.881Z,9.55
2023-05-06T22:25:58.526Z,8.48
2023-05-06T22:29:01.600Z,8.32
2023-05-06T22:32:03.905Z,8.43
2023-05-06T22:35:07.108Z,10.30
2023-05-06T22:38:09.552Z,8.40
2023-05-06T22:41:12.079Z,9.70
2023-05-06T22:44:14.255Z,8.68
2023-05-06T22:47:16.774Z,8.35
2023-05-06T22:50:18.973Z,8.52
2023-05-06T22:53:21.403Z,13.98
2023-05-06T22:56:23.542Z,10.00
2023-05-06T22:59:25.985Z,9.73
2023-05-06T23:02:28.616Z,8.05
2023-05-06T23:05:31.081Z,8.30
2023-05-06T23:08:33.423Z,8.77
2023-05-06T23:11:35.946Z,8.50
2023-05-06T23:14:38.140Z,6.72
2023-05-06T23:17:40.655Z,7.30
2023-05-06T23:20:42.926Z,6.45
2023-05-06T23:23:45.447Z,5.40
2023-05-06T23:26:47.642Z,5.47
2023-05-06T23:29:50.045Z,5.05
2023-05-06T23:32:52.341Z,5.07
2023-05-06T23:35:54.955Z,5.20
2023-05-06T23:38:57.116Z,5.97
2023-05-06T23:42:00.837Z,7.03
2023-05-06T23:45:03.127Z,10.07
2023-05-06T23:48:05.947Z,8.93
2023-05-06T23:51:08.138Z,8.18
2023-05-06T23:54:10.709Z,9.65
2023-05-06T23:57:12.835Z,9.07
